sensor_id;sensor_type;location;lat;lon;timestamp;pressure;altitude;pressure_sealevel;temperature;humidity
28306;BME280;7516;43.570;1.448;2023-03-23T00:02:24;99211.59;;;14.41;58.49
28306;BME280;7516;43.570;1.448;2023-03-23T00:04:52;99206.69;;;14.38;58.65
28306;BME280;7516;43.570;1.448;2023-03-23T00:07:20;99205.06;;;14.37;59.87
28306;BME280;7516;43.570;1.448;2023-03-23T00:09:48;99206.53;;;14.32;59.94
28306;BME280;7516;43.570;1.448;2023-03-23T00:12:20;99204.28;;;14.29;61.73
28306;BME280;7516;43.570;1.448;2023-03-23T00:15:00;99200.84;;;14.29;61.48
28306;BME280;7516;43.570;1.448;2023-03-23T00:17:29;99192.75;;;14.24;62.34
28306;BME280;7516;43.570;1.448;2023-03-23T00:19:59;99195.00;;;14.20;61.50
28306;BME280;7516;43.570;1.448;2023-03-23T00:22:28;99196.00;;;14.19;61.59
28306;BME280;7516;43.570;1.448;2023-03-23T00:24:55;99195.41;;;14.17;62.49
28306;BME280;7516;43.570;1.448;2023-03-23T00:27:23;99201.09;;;14.14;62.13
28306;BME280;7516;43.570;1.448;2023-03-23T00:29:51;99192.78;;;14.11;64.09
28306;BME280;7516;43.570;1.448;2023-03-23T00:32:22;99183.47;;;14.08;63.54
28306;BME280;7516;43.570;1.448;2023-03-23T00:34:55;99188.75;;;14.08;64.45
28306;BME280;7516;43.570;1.448;2023-03-23T00:37:25;99183.91;;;14.05;64.42
28306;BME280;7516;43.570;1.448;2023-03-23T00:39:52;99187.75;;;14.03;65.60
28306;BME280;7516;43.570;1.448;2023-03-23T00:42:23;99183.69;;;14.00;65.47
28306;BME280;7516;43.570;1.448;2023-03-23T00:44:51;99185.31;;;14.01;66.18
28306;BME280;7516;43.570;1.448;2023-03-23T00:47:28;99183.31;;;13.97;66.89
28306;BME280;7516;43.570;1.448;2023-03-23T00:49:56;99185.34;;;13.94;67.62
28306;BME280;7516;43.570;1.448;2023-03-23T00:52:24;99179.66;;;13.91;68.01
28306;BME280;7516;43.570;1.448;2023-03-23T00:54:51;99178.03;;;13.90;69.31
28306;BME280;7516;43.570;1.448;2023-03-23T00:57:19;99178.47;;;13.87;69.76
28306;BME280;7516;43.570;1.448;2023-03-23T00:59:50;99166.72;;;13.83;71.53
28306;BME280;7516;43.570;1.448;2023-03-23T01:02:17;99169.78;;;13.80;71.84
28306;BME280;7516;43.570;1.448;2023-03-23T01:04:52;99169.38;;;13.76;72.62
28306;BME280;7516;43.570;1.448;2023-03-23T01:07:22;99169.41;;;13.70;72.69
28306;BME280;7516;43.570;1.448;2023-03-23T01:09:52;99163.94;;;13.65;74.72
28306;BME280;7516;43.570;1.448;2023-03-23T01:12:20;99160.50;;;13.57;74.00
28306;BME280;7516;43.570;1.448;2023-03-23T01:14:53;99156.66;;;13.53;75.90
28306;BME280;7516;43.570;1.448;2023-03-23T01:17:21;99155.84;;;13.46;75.92
28306;BME280;7516;43.570;1.448;2023-03-23T01:19:48;99160.72;;;13.43;76.31
28306;BME280;7516;43.570;1.448;2023-03-23T01:22:17;99159.31;;;13.40;76.69
28306;BME280;7516;43.570;1.448;2023-03-23T01:24:45;99157.69;;;13.33;79.15
28306;BME280;7516;43.570;1.448;2023-03-23T01:27:12;99162.53;;;13.29;79.13
28306;BME280;7516;43.570;1.448;2023-03-23T01:29:40;99157.91;;;13.25;80.20
28306;BME280;7516;43.570;1.448;2023-03-23T01:32:07;99156.66;;;13.21;80.86
28306;BME280;7516;43.570;1.448;2023-03-23T01:34:35;99159.53;;;13.19;83.09
28306;BME280;7516;43.570;1.448;2023-03-23T01:37:03;99153.84;;;13.15;83.89
28306;BME280;7516;43.570;1.448;2023-03-23T01:39:32;99157.03;;;13.11;85.35
28306;BME280;7516;43.570;1.448;2023-03-23T01:41:59;99150.19;;;13.10;85.72
28306;BME280;7516;43.570;1.448;2023-03-23T01:47:32;99141.28;;;12.98;88.60
28306;BME280;7516;43.570;1.448;2023-03-23T01:49:59;99147.53;;;12.97;88.97
28306;BME280;7516;43.570;1.448;2023-03-23T01:52:28;99135.59;;;12.94;89.27
28306;BME280;7516;43.570;1.448;2023-03-23T01:54:58;99145.72;;;12.91;89.78
28306;BME280;7516;43.570;1.448;2023-03-23T01:57:26;99144.50;;;12.87;90.14
28306;BME280;7516;43.570;1.448;2023-03-23T01:59:58;99139.66;;;12.84;91.97
28306;BME280;7516;43.570;1.448;2023-03-23T02:02:34;99140.03;;;12.80;92.16
28306;BME280;7516;43.570;1.448;2023-03-23T02:05:10;99133.34;;;12.78;94.71
28306;BME280;7516;43.570;1.448;2023-03-23T02:07:38;99127.72;;;12.74;93.95
28306;BME280;7516;43.570;1.448;2023-03-23T02:10:08;99131.16;;;12.75;95.50
28306;BME280;7516;43.570;1.448;2023-03-23T02:12:35;99141.63;;;12.68;96.79
28306;BME280;7516;43.570;1.448;2023-03-23T02:15:04;99135.78;;;12.66;97.38
28306;BME280;7516;43.570;1.448;2023-03-23T02:17:35;99134.16;;;12.65;96.62
28306;BME280;7516;43.570;1.448;2023-03-23T02:20:17;99147.31;;;12.65;96.07
28306;BME280;7516;43.570;1.448;2023-03-23T02:23:05;99135.56;;;12.61;97.46
28306;BME280;7516;43.570;1.448;2023-03-23T02:25:59;99123.84;;;12.57;97.94
28306;BME280;7516;43.570;1.448;2023-03-23T02:31:35;99118.97;;;12.54;100.00
28306;BME280;7516;43.570;1.448;2023-03-23T02:34:13;99115.34;;;12.55;100.00
28306;BME280;7516;43.570;1.448;2023-03-23T02:36:46;99111.47;;;12.58;100.00
28306;BME280;7516;43.570;1.448;2023-03-23T02:39:19;99110.47;;;12.59;100.00
28306;BME280;7516;43.570;1.448;2023-03-23T02:41:51;99113.31;;;12.57;100.00
28306;BME280;7516;43.570;1.448;2023-03-23T02:44:22;99105.63;;;12.62;100.00
28306;BME280;7516;43.570;1.448;2023-03-23T02:46:52;99092.69;;;12.61;100.00
28306;BME280;7516;43.570;1.448;2023-03-23T02:49:23;99099.97;;;12.59;100.00
28306;BME280;7516;43.570;1.448;2023-03-23T02:51:53;99112.50;;;12.57;100.00
28306;BME280;7516;43.570;1.448;2023-03-23T02:54:23;99112.09;;;12.53;100.00
28306;BME280;7516;43.570;1.448;2023-03-23T02:56:52;99120.59;;;12.49;100.00
28306;BME280;7516;43.570;1.448;2023-03-23T02:59:24;99126.63;;;12.42;100.00
28306;BME280;7516;43.570;1.448;2023-03-23T03:02:01;99126.41;;;12.37;100.00
28306;BME280;7516;43.570;1.448;2023-03-23T03:04:33;99113.66;;;12.34;100.00
28306;BME280;7516;43.570;1.448;2023-03-23T03:07:19;99106.41;;;12.36;100.00
28306;BME280;7516;43.570;1.448;2023-03-23T03:09:53;99103.53;;;12.31;100.00
28306;BME280;7516;43.570;1.448;2023-03-23T03:12:30;99097.69;;;12.29;100.00
28306;BME280;7516;43.570;1.448;2023-03-23T03:15:10;99088.56;;;12.25;100.00
28306;BME280;7516;43.570;1.448;2023-03-23T03:17:44;99087.38;;;12.28;100.00
28306;BME280;7516;43.570;1.448;2023-03-23T03:20:15;99098.69;;;12.28;100.00
28306;BME280;7516;43.570;1.448;2023-03-23T03:22:44;99098.50;;;12.30;100.00
28306;BME280;7516;43.570;1.448;2023-03-23T03:25:14;99090.19;;;12.26;100.00
28306;BME280;7516;43.570;1.448;2023-03-23T03:27:44;99086.19;;;12.30;100.00
28306;BME280;7516;43.570;1.448;2023-03-23T03:30:17;99097.88;;;12.34;100.00
28306;BME280;7516;43.570;1.448;2023-03-23T03:32:49;99097.88;;;12.34;100.00
28306;BME280;7516;43.570;1.448;2023-03-23T03:35:21;99093.47;;;12.41;100.00
28306;BME280;7516;43.570;1.448;2023-03-23T03:37:50;99104.38;;;12.38;100.00
28306;BME280;7516;43.570;1.448;2023-03-23T03:40:21;99098.31;;;12.38;100.00
28306;BME280;7516;43.570;1.448;2023-03-23T03:42:48;99091.44;;;12.37;100.00
28306;BME280;7516;43.570;1.448;2023-03-23T03:45:18;99088.19;;;12.35;100.00
28306;BME280;7516;43.570;1.448;2023-03-23T03:47:46;99083.31;;;12.32;100.00
28306;BME280;7516;43.570;1.448;2023-03-23T03:50:13;99081.72;;;12.31;100.00
28306;BME280;7516;43.570;1.448;2023-03-23T03:52:44;99084.31;;;12.24;100.00
28306;BME280;7516;43.570;1.448;2023-03-23T03:55:11;99092.81;;;12.20;100.00
28306;BME280;7516;43.570;1.448;2023-03-23T03:57:39;99102.69;;;12.18;100.00
28306;BME280;7516;43.570;1.448;2023-03-23T04:00:09;99097.63;;;12.16;100.00
28306;BME280;7516;43.570;1.448;2023-03-23T04:02:41;99108.75;;;12.18;100.00
28306;BME280;7516;43.570;1.448;2023-03-23T04:05:10;99113.19;;;12.18;100.00
28306;BME280;7516;43.570;1.448;2023-03-23T04:07:38;99102.69;;;12.18;100.00
28306;BME280;7516;43.570;1.448;2023-03-23T04:10:08;99118.47;;;12.18;100.00
28306;BME280;7516;43.570;1.448;2023-03-23T04:12:37;99108.16;;;12.16;100.00
28306;BME280;7516;43.570;1.448;2023-03-23T04:15:06;99106.94;;;12.19;100.00
28306;BME280;7516;43.570;1.448;2023-03-23T04:17:34;99103.94;;;12.22;100.00
28306;BME280;7516;43.570;1.448;2023-03-23T04:20:03;99102.31;;;12.21;100.00
28306;BME280;7516;43.570;1.448;2023-03-23T04:22:33;99101.91;;;12.24;100.00
28306;BME280;7516;43.570;1.448;2023-03-23T04:25:02;99106.16;;;12.25;100.00
28306;BME280;7516;43.570;1.448;2023-03-23T04:27:33;99113.66;;;12.28;100.00
28306;BME280;7516;43.570;1.448;2023-03-23T04:30:05;99103.75;;;12.30;100.00
28306;BME280;7516;43.570;1.448;2023-03-23T04:32:33;99105.38;;;12.31;100.00
28306;BME280;7516;43.570;1.448;2023-03-23T04:35:03;99125.38;;;12.32;100.00
28306;BME280;7516;43.570;1.448;2023-03-23T04:37:33;99131.25;;;12.34;100.00
28306;BME280;7516;43.570;1.448;2023-03-23T04:40:01;99143.56;;;12.33;100.00
28306;BME280;7516;43.570;1.448;2023-03-23T04:42:34;99144.00;;;12.37;100.00
28306;BME280;7516;43.570;1.448;2023-03-23T04:45:04;99143.38;;;12.41;100.00
28306;BME280;7516;43.570;1.448;2023-03-23T04:47:34;99157.75;;;12.39;100.00
28306;BME280;7516;43.570;1.448;2023-03-23T04:50:07;99167.84;;;12.42;100.00
28306;BME280;7516;43.570;1.448;2023-03-23T04:52:35;99162.59;;;12.42;100.00
28306;BME280;7516;43.570;1.448;2023-03-23T04:55:08;99155.72;;;12.41;100.00
28306;BME280;7516;43.570;1.448;2023-03-23T04:57:37;99178.78;;;12.46;100.00
28306;BME280;7516;43.570;1.448;2023-03-23T05:00:06;99178.41;;;12.49;100.00
28306;BME280;7516;43.570;1.448;2023-03-23T05:02:35;99177.59;;;12.48;100.00
28306;BME280;7516;43.570;1.448;2023-03-23T05:05:06;99176.56;;;12.49;100.00
28306;BME280;7516;43.570;1.448;2023-03-23T05:07:33;99181.63;;;12.51;100.00
28306;BME280;7516;43.570;1.448;2023-03-23T05:10:01;99185.47;;;12.48;100.00
28306;BME280;7516;43.570;1.448;2023-03-23T05:12:29;99178.97;;;12.44;100.00
28306;BME280;7516;43.570;1.448;2023-03-23T05:14:58;99175.53;;;12.43;100.00
28306;BME280;7516;43.570;1.448;2023-03-23T05:17:26;99183.22;;;12.45;100.00
28306;BME280;7516;43.570;1.448;2023-03-23T05:19:54;99181.19;;;12.40;100.00
28306;BME280;7516;43.570;1.448;2023-03-23T05:22:22;99191.28;;;12.37;100.00
28306;BME280;7516;43.570;1.448;2023-03-23T05:24:50;99187.22;;;12.34;100.00
28306;BME280;7516;43.570;1.448;2023-03-23T05:27:18;99193.47;;;12.33;100.00
28306;BME280;7516;43.570;1.448;2023-03-23T05:29:46;99200.56;;;12.33;100.00
28306;BME280;7516;43.570;1.448;2023-03-23T05:32:17;99191.03;;;12.32;100.00
28306;BME280;7516;43.570;1.448;2023-03-23T05:34:45;99199.34;;;12.35;100.00
28306;BME280;7516;43.570;1.448;2023-03-23T05:37:12;99198.16;;;12.38;100.00
28306;BME280;7516;43.570;1.448;2023-03-23T05:39:40;99201.59;;;12.38;100.00
28306;BME280;7516;43.570;1.448;2023-03-23T05:42:08;99193.72;;;12.38;100.00
28306;BME280;7516;43.570;1.448;2023-03-23T05:44:35;99197.72;;;12.34;100.00
28306;BME280;7516;43.570;1.448;2023-03-23T05:47:04;99193.69;;;12.32;100.00
28306;BME280;7516;43.570;1.448;2023-03-23T05:49:33;99187.22;;;12.28;100.00
28306;BME280;7516;43.570;1.448;2023-03-23T05:52:02;99192.84;;;12.25;100.00
28306;BME280;7516;43.570;1.448;2023-03-23T05:54:30;99203.75;;;12.22;100.00
28306;BME280;7516;43.570;1.448;2023-03-23T05:56:57;99216.28;;;12.20;100.00
28306;BME280;7516;43.570;1.448;2023-03-23T05:59:25;99212.22;;;12.17;100.00
28306;BME280;7516;43.570;1.448;2023-03-23T06:01:53;99200.88;;;12.17;100.00
28306;BME280;7516;43.570;1.448;2023-03-23T06:04:21;99202.50;;;12.18;100.00
28306;BME280;7516;43.570;1.448;2023-03-23T06:06:52;99202.50;;;12.18;100.00
28306;BME280;7516;43.570;1.448;2023-03-23T06:09:20;99207.56;;;12.19;100.00
28306;BME280;7516;43.570;1.448;2023-03-23T06:11:49;99196.88;;;12.21;100.00
28306;BME280;7516;43.570;1.448;2023-03-23T06:14:18;99217.09;;;12.20;100.00
28306;BME280;7516;43.570;1.448;2023-03-23T06:16:45;99209.41;;;12.25;100.00
28306;BME280;7516;43.570;1.448;2023-03-23T06:19:13;99211.22;;;12.25;100.00
28306;BME280;7516;43.570;1.448;2023-03-23T06:21:41;99219.53;;;12.28;100.00
28306;BME280;7516;43.570;1.448;2023-03-23T06:24:11;99213.28;;;12.29;100.00
28306;BME280;7516;43.570;1.448;2023-03-23T06:26:39;99222.78;;;12.30;100.00
28306;BME280;7516;43.570;1.448;2023-03-23T06:29:11;99239.78;;;12.34;100.00
28306;BME280;7516;43.570;1.448;2023-03-23T06:31:41;99242.03;;;12.37;100.00
28306;BME280;7516;43.570;1.448;2023-03-23T06:34:10;99254.56;;;12.42;100.00
28306;BME280;7516;43.570;1.448;2023-03-23T06:36:38;99256.81;;;12.45;100.00
28306;BME280;7516;43.570;1.448;2023-03-23T06:39:06;99262.09;;;12.52;100.00
28306;BME280;7516;43.570;1.448;2023-03-23T06:41:34;99262.09;;;12.58;100.00
28306;BME280;7516;43.570;1.448;2023-03-23T06:44:02;99262.16;;;12.65;100.00
28306;BME280;7516;43.570;1.448;2023-03-23T06:46:30;99253.66;;;12.69;100.00
28306;BME280;7516;43.570;1.448;2023-03-23T06:48:57;99267.44;;;12.78;100.00
28306;BME280;7516;43.570;1.448;2023-03-23T06:51:25;99273.75;;;12.84;100.00
28306;BME280;7516;43.570;1.448;2023-03-23T06:53:53;99276.78;;;12.87;100.00
28306;BME280;7516;43.570;1.448;2023-03-23T06:56:21;99285.72;;;12.93;100.00
28306;BME280;7516;43.570;1.448;2023-03-23T06:58:50;99285.53;;;13.01;100.00
28306;BME280;7516;43.570;1.448;2023-03-23T07:01:17;99285.38;;;13.09;100.00
28306;BME280;7516;43.570;1.448;2023-03-23T07:03:45;99287.03;;;13.16;100.00
28306;BME280;7516;43.570;1.448;2023-03-23T07:06:12;99301.81;;;13.24;100.00
28306;BME280;7516;43.570;1.448;2023-03-23T07:08:40;99305.47;;;13.30;100.00
28306;BME280;7516;43.570;1.448;2023-03-23T07:11:07;99306.88;;;13.32;100.00
28306;BME280;7516;43.570;1.448;2023-03-23T07:13:36;99301.25;;;13.35;100.00
28306;BME280;7516;43.570;1.448;2023-03-23T07:16:07;99301.81;;;13.37;100.00
28306;BME280;7516;43.570;1.448;2023-03-23T07:18:35;99303.06;;;13.41;100.00
28306;BME280;7516;43.570;1.448;2023-03-23T07:21:03;99295.16;;;13.41;100.00
28306;BME280;7516;43.570;1.448;2023-03-23T07:23:31;99310.56;;;13.44;100.00
28306;BME280;7516;43.570;1.448;2023-03-23T07:25:58;99307.94;;;13.44;100.00
28306;BME280;7516;43.570;1.448;2023-03-23T07:28:26;99303.25;;;13.46;100.00
28306;BME280;7516;43.570;1.448;2023-03-23T07:30:54;99308.31;;;13.48;100.00
28306;BME280;7516;43.570;1.448;2023-03-23T07:33:23;99301.25;;;13.48;100.00
28306;BME280;7516;43.570;1.448;2023-03-23T07:35:50;99318.66;;;13.49;100.00
28306;BME280;7516;43.570;1.448;2023-03-23T07:38:18;99322.91;;;13.50;100.00
28306;BME280;7516;43.570;1.448;2023-03-23T07:40:46;99326.56;;;13.49;100.00
28306;BME280;7516;43.570;1.448;2023-03-23T07:43:14;99320.47;;;13.49;100.00
28306;BME280;7516;43.570;1.448;2023-03-23T07:45:41;99326.56;;;13.49;100.00
28306;BME280;7516;43.570;1.448;2023-03-23T07:48:09;99319.66;;;13.48;100.00
28306;BME280;7516;43.570;1.448;2023-03-23T07:50:38;99326.38;;;13.51;100.00
28306;BME280;7516;43.570;1.448;2023-03-23T07:53:06;99329.63;;;13.53;100.00
28306;BME280;7516;43.570;1.448;2023-03-23T07:55:33;99330.00;;;13.56;100.00
28306;BME280;7516;43.570;1.448;2023-03-23T07:58:01;99331.44;;;13.66;100.00
28306;BME280;7516;43.570;1.448;2023-03-23T08:00:29;99324.34;;;13.73;100.00
28306;BME280;7516;43.570;1.448;2023-03-23T08:02:59;99327.19;;;13.78;100.00
28306;BME280;7516;43.570;1.448;2023-03-23T08:05:27;99326.38;;;13.84;100.00
28306;BME280;7516;43.570;1.448;2023-03-23T08:07:56;99323.75;;;13.90;100.00
28306;BME280;7516;43.570;1.448;2023-03-23T08:10:24;99338.56;;;13.98;100.00
28306;BME280;7516;43.570;1.448;2023-03-23T08:12:56;99329.63;;;14.06;100.00
28306;BME280;7516;43.570;1.448;2023-03-23T08:15:25;99318.06;;;14.13;100.00
28306;BME280;7516;43.570;1.448;2023-03-23T08:17:53;99313.78;;;14.25;100.00
28306;BME280;7516;43.570;1.448;2023-03-23T08:20:22;99304.06;;;14.32;100.00
28306;BME280;7516;43.570;1.448;2023-03-23T08:22:53;99310.97;;;14.40;100.00
28306;BME280;7516;43.570;1.448;2023-03-23T08:25:23;99303.41;;;14.37;99.58
28306;BME280;7516;43.570;1.448;2023-03-23T08:27:52;99305.69;;;14.34;99.92
28306;BME280;7516;43.570;1.448;2023-03-23T08:30:21;99306.88;;;14.38;100.00
28306;BME280;7516;43.570;1.448;2023-03-23T08:32:51;99308.91;;;14.49;99.87
28306;BME280;7516;43.570;1.448;2023-03-23T08:35:19;99297.94;;;14.58;100.00
28306;BME280;7516;43.570;1.448;2023-03-23T08:37:47;99299.09;;;14.69;100.00
28306;BME280;7516;43.570;1.448;2023-03-23T08:40:18;99311.63;;;14.80;98.51
28306;BME280;7516;43.570;1.448;2023-03-23T08:42:48;99316.00;;;14.99;99.08
28306;BME280;7516;43.570;1.448;2023-03-23T08:45:22;99320.81;;;15.16;98.64
28306;BME280;7516;43.570;1.448;2023-03-23T08:47:50;99323.53;;;15.34;98.05
28306;BME280;7516;43.570;1.448;2023-03-23T08:50:23;99324.69;;;15.44;96.98
28306;BME280;7516;43.570;1.448;2023-03-23T08:52:51;99333.00;;;15.48;97.41
28306;BME280;7516;43.570;1.448;2023-03-23T08:55:20;99337.69;;;15.46;96.35
28306;BME280;7516;43.570;1.448;2023-03-23T08:57:49;99339.53;;;15.46;96.68
28306;BME280;7516;43.570;1.448;2023-03-23T09:00:21;99337.31;;;15.42;95.80
28306;BME280;7516;43.570;1.448;2023-03-23T09:02:52;99337.72;;;15.39;95.68
28306;BME280;7516;43.570;1.448;2023-03-23T09:05:22;99341.78;;;15.42;95.82
28306;BME280;7516;43.570;1.448;2023-03-23T09:07:52;99345.44;;;15.41;95.26
28306;BME280;7516;43.570;1.448;2023-03-23T09:10:20;99340.16;;;15.41;95.86
28306;BME280;7516;43.570;1.448;2023-03-23T09:12:53;99342.53;;;15.49;95.80
28306;BME280;7516;43.570;1.448;2023-03-23T09:15:22;99342.75;;;15.54;95.51
28306;BME280;7516;43.570;1.448;2023-03-23T09:17:51;99344.94;;;15.57;94.67
28306;BME280;7516;43.570;1.448;2023-03-23T09:20:22;99339.81;;;15.69;95.29
28306;BME280;7516;43.570;1.448;2023-03-23T09:22:51;99336.28;;;15.75;94.58
28306;BME280;7516;43.570;1.448;2023-03-23T09:25:21;99342.38;;;15.82;94.47
28306;BME280;7516;43.570;1.448;2023-03-23T09:27:54;99343.31;;;15.88;93.93
28306;BME280;7516;43.570;1.448;2023-03-23T09:30:23;99332.75;;;15.88;93.66
28306;BME280;7516;43.570;1.448;2023-03-23T09:32:53;99336.22;;;15.88;93.52
28306;BME280;7516;43.570;1.448;2023-03-23T09:35:21;99324.34;;;15.97;93.64
28306;BME280;7516;43.570;1.448;2023-03-23T09:37:51;99324.69;;;16.01;93.03
28306;BME280;7516;43.570;1.448;2023-03-23T09:40:21;99326.13;;;16.03;91.43
28306;BME280;7516;43.570;1.448;2023-03-23T09:45:53;99337.00;;;16.13;92.06
28306;BME280;7516;43.570;1.448;2023-03-23T09:48:44;99340.03;;;16.17;91.68
28306;BME280;7516;43.570;1.448;2023-03-23T09:51:24;99343.84;;;16.21;91.81
28306;BME280;7516;43.570;1.448;2023-03-23T09:53:56;99339.09;;;16.30;92.02
28306;BME280;7516;43.570;1.448;2023-03-23T09:56:31;99343.94;;;16.33;90.45
28306;BME280;7516;43.570;1.448;2023-03-23T09:59:03;99346.53;;;16.39;90.27
28306;BME280;7516;43.570;1.448;2023-03-23T10:01:35;99333.22;;;16.46;89.96
28306;BME280;7516;43.570;1.448;2023-03-23T10:04:07;99342.94;;;16.52;90.20
28306;BME280;7516;43.570;1.448;2023-03-23T10:06:37;99355.28;;;16.58;89.86
28306;BME280;7516;43.570;1.448;2023-03-23T10:09:05;99356.53;;;16.55;89.71
28306;BME280;7516;43.570;1.448;2023-03-23T10:11:42;99351.03;;;16.57;90.15
28306;BME280;7516;43.570;1.448;2023-03-23T10:14:28;99350.44;;;16.55;89.61
28306;BME280;7516;43.570;1.448;2023-03-23T10:17:03;99342.06;;;16.58;90.61
28306;BME280;7516;43.570;1.448;2023-03-23T10:19:47;99340.81;;;16.61;90.52
28306;BME280;7516;43.570;1.448;2023-03-23T10:22:29;99340.81;;;16.61;90.23
28306;BME280;7516;43.570;1.448;2023-03-23T10:25:05;99345.94;;;16.55;89.79
28306;BME280;7516;43.570;1.448;2023-03-23T10:27:42;99339.84;;;16.55;89.74
28306;BME280;7516;43.570;1.448;2023-03-23T10:30:17;99354.69;;;16.56;90.05
28306;BME280;7516;43.570;1.448;2023-03-23T10:32:51;99344.91;;;16.56;90.71
28306;BME280;7516;43.570;1.448;2023-03-23T10:35:23;99334.72;;;16.60;90.55
28306;BME280;7516;43.570;1.448;2023-03-23T10:37:55;99348.34;;;16.64;90.09
28306;BME280;7516;43.570;1.448;2023-03-23T10:40:27;99341.59;;;16.68;90.06
28306;BME280;7516;43.570;1.448;2023-03-23T10:42:56;99344.59;;;16.71;89.95
28306;BME280;7516;43.570;1.448;2023-03-23T10:45:28;99348.13;;;16.83;89.09
28306;BME280;7516;43.570;1.448;2023-03-23T10:48:06;99347.72;;;16.98;89.65
28306;BME280;7516;43.570;1.448;2023-03-23T10:50:37;99363.25;;;17.13;89.27
28306;BME280;7516;43.570;1.448;2023-03-23T10:53:13;99364.09;;;17.25;88.39
28306;BME280;7516;43.570;1.448;2023-03-23T10:55:43;99361.50;;;17.37;89.02
28306;BME280;7516;43.570;1.448;2023-03-23T10:58:22;99356.31;;;17.42;89.18
28306;BME280;7516;43.570;1.448;2023-03-23T11:00:52;99350.00;;;17.43;87.73
28306;BME280;7516;43.570;1.448;2023-03-23T11:03:29;99341.59;;;17.46;86.38
28306;BME280;7516;43.570;1.448;2023-03-23T11:06:02;99343.00;;;17.48;87.21
28306;BME280;7516;43.570;1.448;2023-03-23T11:08:32;99339.22;;;17.56;86.24
28306;BME280;7516;43.570;1.448;2023-03-23T11:11:10;99322.88;;;17.59;86.92
28306;BME280;7516;43.570;1.448;2023-03-23T11:13:41;99330.38;;;17.62;85.06
28306;BME280;7516;43.570;1.448;2023-03-23T11:16:23;99310.19;;;17.61;84.96
28306;BME280;7516;43.570;1.448;2023-03-23T11:18:51;99314.03;;;17.65;84.15
28306;BME280;7516;43.570;1.448;2023-03-23T11:21:21;99305.16;;;17.71;83.65
28306;BME280;7516;43.570;1.448;2023-03-23T11:23:51;99304.72;;;17.74;84.81
28306;BME280;7516;43.570;1.448;2023-03-23T11:26:24;99300.56;;;17.78;84.49
28306;BME280;7516;43.570;1.448;2023-03-23T11:28:56;99296.44;;;17.82;85.00
28306;BME280;7516;43.570;1.448;2023-03-23T11:31:29;99279.38;;;17.90;83.44
28306;BME280;7516;43.570;1.448;2023-03-23T11:34:00;99280.84;;;17.86;81.95
28306;BME280;7516;43.570;1.448;2023-03-23T11:36:34;99276.72;;;17.90;82.68
28306;BME280;7516;43.570;1.448;2023-03-23T11:39:17;99273.38;;;17.94;84.03
28306;BME280;7516;43.570;1.448;2023-03-23T11:41:46;99272.91;;;17.97;81.78
28306;BME280;7516;43.570;1.448;2023-03-23T11:44:14;99261.84;;;18.00;81.35
28306;BME280;7516;43.570;1.448;2023-03-23T11:46:49;99270.84;;;17.99;81.56
28306;BME280;7516;43.570;1.448;2023-03-23T11:49:28;99267.84;;;18.08;82.45
28306;BME280;7516;43.570;1.448;2023-03-23T11:52:02;99266.91;;;18.14;80.68
28306;BME280;7516;43.570;1.448;2023-03-23T11:54:34;99259.41;;;18.22;79.92
28306;BME280;7516;43.570;1.448;2023-03-23T11:57:07;99243.50;;;18.22;80.28
28306;BME280;7516;43.570;1.448;2023-03-23T11:59:37;99244.50;;;18.33;78.76
28306;BME280;7516;43.570;1.448;2023-03-23T12:02:19;99247.16;;;18.45;80.68
28306;BME280;7516;43.570;1.448;2023-03-23T12:05:26;99239.97;;;18.57;80.02
28306;BME280;7516;43.570;1.448;2023-03-23T12:08:03;99244.13;;;18.64;78.15
28306;BME280;7516;43.570;1.448;2023-03-23T12:10:40;99241.78;;;18.68;78.07
28306;BME280;7516;43.570;1.448;2023-03-23T12:13:24;99239.06;;;18.63;78.32
28306;BME280;7516;43.570;1.448;2023-03-23T12:15:58;99234.78;;;18.62;77.72
28306;BME280;7516;43.570;1.448;2023-03-23T12:18:36;99223.94;;;18.63;75.77
28306;BME280;7516;43.570;1.448;2023-03-23T12:21:12;99210.53;;;18.70;77.95
28306;BME280;7516;43.570;1.448;2023-03-23T12:23:48;99206.91;;;18.76;76.37
28306;BME280;7516;43.570;1.448;2023-03-23T12:26:24;99208.53;;;18.77;76.17
28306;BME280;7516;43.570;1.448;2023-03-23T12:29:20;99207.25;;;18.79;77.31
28306;BME280;7516;43.570;1.448;2023-03-23T12:32:00;99211.72;;;18.91;77.71
28306;BME280;7516;43.570;1.448;2023-03-23T12:34:38;99210.91;;;18.90;76.46
28306;BME280;7516;43.570;1.448;2023-03-23T12:37:30;99206.06;;;18.87;75.13
28306;BME280;7516;43.570;1.448;2023-03-23T12:40:16;99199.69;;;18.88;75.21
28306;BME280;7516;43.570;1.448;2023-03-23T12:42:54;99187.81;;;18.91;76.62
28306;BME280;7516;43.570;1.448;2023-03-23T12:45:40;99180.72;;;18.96;75.08
28306;BME280;7516;43.570;1.448;2023-03-23T12:48:13;99185.88;;;19.03;75.62
28306;BME280;7516;43.570;1.448;2023-03-23T12:50:58;99163.63;;;18.92;73.71
28306;BME280;7516;43.570;1.448;2023-03-23T12:53:30;99167.19;;;18.81;73.20
28306;BME280;7516;43.570;1.448;2023-03-23T12:56:10;99171.34;;;18.77;73.82
28306;BME280;7516;43.570;1.448;2023-03-23T12:58:44;99165.00;;;18.78;74.04
28306;BME280;7516;43.570;1.448;2023-03-23T13:01:15;99152.75;;;18.77;73.64
28306;BME280;7516;43.570;1.448;2023-03-23T13:03:49;99153.34;;;18.79;73.45
28306;BME280;7516;43.570;1.448;2023-03-23T13:06:25;99157.84;;;18.78;72.34
28306;BME280;7516;43.570;1.448;2023-03-23T13:08:58;99155.88;;;18.74;72.83
28306;BME280;7516;43.570;1.448;2023-03-23T13:11:31;99152.19;;;18.75;73.40
28306;BME280;7516;43.570;1.448;2023-03-23T13:14:08;99144.63;;;18.84;72.83
28306;BME280;7516;43.570;1.448;2023-03-23T13:16:44;99142.78;;;18.84;72.04
28306;BME280;7516;43.570;1.448;2023-03-23T13:19:20;99138.38;;;18.90;72.58
28306;BME280;7516;43.570;1.448;2023-03-23T13:21:58;99148.63;;;18.98;72.77
28306;BME280;7516;43.570;1.448;2023-03-23T13:24:33;99133.91;;;19.07;72.63
28306;BME280;7516;43.570;1.448;2023-03-23T13:27:01;99141.47;;;19.15;72.66
28306;BME280;7516;43.570;1.448;2023-03-23T13:29:29;99140.47;;;19.21;71.89
28306;BME280;7516;43.570;1.448;2023-03-23T13:32:09;99141.63;;;19.25;72.63
28306;BME280;7516;43.570;1.448;2023-03-23T13:34:40;99121.47;;;19.29;72.43
28306;BME280;7516;43.570;1.448;2023-03-23T13:37:19;99113.09;;;19.37;71.45